weather.gov     
National Weather Service

Terminal Aerodrome Forecast
NWS Homepage
This page is being discontinued on March 12, 2014.
The same data is available at this site. Please update your bookmarks.
Thank you, and we apologize for the inconvenience.
Please send an email to SR-SRH.Webmaster@noaa.gov with any concerns.


Current Version
Previous Version:    01  02  03  04  05  06  07  08  09  10  11  12  13  14  15  16  17  18  19  20  21  22  23  24  25  26  27  
[Printable]
662
FTAK31 PAJN 172300
TAFAGY
TAF
PAGY 172337Z 1800/1824 04010KT P6SM VCSH FEW050 OVC080
     FM180600 VRB05KT P6SM -SHRA SCT025 OVC040
     FM181200 21010G20KT P6SM -SHRA SCT025 OVC040
     FM181500 21013G25KT P6SM VCSH SCT025 OVC050
     FM182100 21012G24KT P6SM SCT035 BKN070
      AMD LTD TO CLD VIS AND WIND=


U.S. Dept. of Commerce
NOAA National Weather Service
1325 East West Highway
Silver Spring, MD 20910
E-mail: w-nws.webmaster@noaa.gov
Page last modified: May 16, 2007
NATIONAL WEATHER SERVICE: for Safety, for Work, for Fun - FOR LIFE